Metar Cercanos

 

LEPA - Palma De Mallorc, Spain
Distance from station: ONO 38km
Actualización: 19/08/2018 00:00
Few Clouds
Few Clouds
 Viento del N
Viento: N 7 km/h
Temperatura: 21°C
Rocío: 19°C
Humedad: 88%
Barómetro: 1020 hPa
Clouds: Few Clouds
Visibility: 10 km
Cloud details: Few Clouds 914 m
2018/08/18 22:00 LEPA 182200Z 01004KT 300V080 9999 FEW030 21/19 Q1020 NOSIG
LEMH - Mahon/Menorca Is, Spain
Distance from station: ENE 105km
Actualización: 19/08/2018 00:00
Few Clouds
Few Clouds
 Viento del N
Viento: N 7 km/h
Temperatura: 21°C
Rocío: 18°C
Humedad: 83%
Barómetro: 1019 hPa
Clouds: Few Clouds
Visibility: 10 km
Cloud details: Few Clouds 914 m
2018/08/18 22:00 LEMH 182200Z 35004KT 9999 FEW030 21/18 Q1019
 
LEIB - Ibiza/Es Codola, Spain
Distance from station: OSO 165km
Actualización: 19/08/2018 00:00
Few Clouds
Few Clouds
 Viento del N
Viento: N 9 km/h
Temperatura: 22°C
Rocío: 19°C
Humedad: 83%
Barómetro: 1020 hPa
Clouds: Few Clouds
Visibility: 10 km
Cloud details: Few Clouds 914 m
2018/08/18 22:00 LEIB 182200Z 35005KT 9999 FEW030 22/19 Q1020 NOSIG
LEBL - Barcelona Airpor, Spain
Distance from station: NNO 225km
Actualización: 19/08/2018 00:00
Despejado
Despejado
 Viento del ONO
Viento: ONO 7 km/h
Temperatura: 24°C
Rocío: 17°C
Humedad: 65%
Barómetro: 1020 hPa
Resumen: Despejado
Visibility: greater than 10 km
2018/08/18 22:00 LEBL 182200Z 29004KT CAVOK 24/17 Q1020 NOSIG
 
LEVC - Valencia (civ/Mi, Spain
Distance from station: NO 188km
Actualización: 19/08/2018 00:00
Few Clouds
Few Clouds
 Viento del O
Viento: O 6 km/h
Temperatura: 24°C
Rocío: 21°C
Humedad: 83%
Barómetro: 1020 hPa
Clouds: Few Clouds
Visibility: 10 km
Cloud details: Few Clouds 914 m
2018/08/18 22:00 LEVC 182200Z 28003KT 9999 FEW030 24/21 Q1020 NOSIG
LEGE - Gerona/Costa Bra, Spain
Distance from station: N 276km
Actualización: 19/08/2018 00:00
Few Clouds
Few Clouds
 Viento del calm
Viento: Calma
Temperatura: 19°C
Rocío: 16°C
Humedad: 83%
Barómetro: 1020 hPa
Clouds: Few Clouds
Visibility: 10 km
Cloud details: Few Clouds 914 m
2018/08/18 22:00 LEGE 182200Z 00000KT 9999 FEW030 19/16 Q1020
 
LEAL - Alicante/El Alte, Spain
Distance from station: OSO 344km
Actualización: 19/08/2018 00:00
Parcialmente nuboso
Parcialmente nuboso
 Viento del ENE
Viento: ENE 11 km/h
Temperatura: 25°C
Rocío: 21°C
Humedad: 79%
Barómetro: 1019 hPa
Clouds: Parcialmente nuboso
Visibility: 10 km
Cloud details: Parcialmente nuboso 610 m
2018/08/18 22:00 LEAL 182200Z 06006KT 9999 SCT020 25/21 Q1019 NOSIG
LEAM - Almeria Airport, Spain
Distance from station: SSO 56km
Actualización: 19/08/2018 00:00
Despejado
Despejado
 Viento del ENE
Viento: ENE 26 km/h
Temperatura: 27°C
Indice Calor: 29°C
Rocío: 20°C
Humedad: 66%
Barómetro: 1016 hPa
Clouds: Despejado
Visibility: 10 km
2018/08/18 22:00 LEAM 182200Z AUTO 06014KT 9999 NCD 27/20 Q1016
 
LEZG - Zaragoza (mil/Ci, Spain
Distance from station: NO 431km
Actualización: 19/08/2018 00:00
Despejado
Despejado
 Viento del ONO
Viento: ONO 20 km/h
Temperatura: 21°C
Rocío: 13°C
Humedad: 60%
Barómetro: 1021 hPa
Resumen: Despejado
Visibility: greater than 10 km
2018/08/18 22:00 LEZG 182200Z 29011KT CAVOK 21/13 Q1021
LEMD - Madrid/Barajas, Spain
Distance from station: ONO 234km
Actualización: 19/08/2018 00:00
Despejado
Despejado
 Viento del NE
Viento: NE 13 km/h
Temperatura: 25°C
Rocío: 7°C
Humedad: 32%
Barómetro: 1020 hPa
Resumen: Despejado
Visibility: greater than 10 km
2018/08/18 22:00 LEMD 182200Z 04007KT 350V070 CAVOK 25/07 Q1020 NOSIG
 
LEGR - Granada Airport, Spain
Distance from station: OSO 62km
Actualización: 19/08/2018 00:00
Despejado
Despejado
 Viento del varies
Viento: varies 2 km/h
Temperatura: 26°C
Rocío: 16°C
Humedad: 54%
Barómetro: 1018 hPa
Clouds: Despejado
Visibility: 10 km
2018/08/18 22:00 LEGR 182200Z AUTO VRB01KT 9999 NCD 26/16 Q1018
LEMG - Malaga (civ/Mil), Spain
Distance from station: OSO 227km
Actualización: 19/08/2018 00:00
Few Clouds
Few Clouds
 Viento del varies
Viento: varies 4 km/h
Temperatura: 25°C
Rocío: 21°C
Humedad: 79%
Barómetro: 1017 hPa
Clouds: Few Clouds
Visibility: 10 km
Cloud details: Few Clouds 610 m
2018/08/18 22:00 LEMG 182200Z VRB02KT 9999 FEW020 25/21 Q1017 NOSIG
 
LEZL - Sevilla (civ/Mil, Spain
Distance from station: S 318km
Actualización: 19/08/2018 00:00
Despejado
Despejado
 Viento del SO
Viento: SO 7 km/h
Temperatura: 29°C
Indice Calor: 29°C
Rocío: 16°C
Humedad: 45%
Barómetro: 1014 hPa
Resumen: Despejado
Visibility: greater than 10 km
2018/08/18 22:00 LEZL 182200Z 23004KT CAVOK 29/16 Q1014 NOSIG
LEVT - Vitoria, Spain
Distance from station: NO 226km
Actualización: 19/08/2018 00:00
Parcialmente nuboso
Parcialmente nuboso
 Viento del E
Viento: E 2 km/h
Temperatura: 13°C
Rocío: 11°C
Humedad: 88%
Barómetro: 1025 hPa
Clouds: Parcialmente nuboso
Visibility: 10 km
Cloud details: Parcialmente nuboso 1158 m
2018/08/18 22:00 LEVT 182200Z 09001KT 9999 SCT038 13/11 Q1025
 
LEBB - Bilbao/Sondica, Spain
Distance from station: NNO 235km
Actualización: 19/08/2018 00:00
Few Clouds
Few Clouds
 Viento del ESE
Viento: ESE 6 km/h
Temperatura: 17°C
Rocío: 15°C
Humedad: 88%
Barómetro: 1024 hPa
Clouds: Few Clouds
Visibility: 10 km
Cloud details: Few Clouds 1372 m
2018/08/18 22:00 LEBB 182200Z 12003KT 9999 FEW045 17/15 Q1024 NOSIG
LESO - San Sebastian/Fu, Spain
Distance from station: N 231km
Actualización: 19/08/2018 00:00
Few Clouds
Few Clouds
 Viento del S
Viento: S 6 km/h
Temperatura: 18°C
Rocío: 16°C
Humedad: 88%
Barómetro: 1024 hPa
Clouds: Few Clouds
Visibility: 10 km
Cloud details: Few Clouds 823 m
2018/08/18 22:00 LESO 182200Z AUTO 18003KT 9999 FEW027/// 18/16 Q1024
 
LEVD - Valladolid(Mil/C, Spain
Distance from station: ONO 239km
Actualización: 18/08/2018 21:30
NOT Current
Despejado
Despejado
 Viento del ENE
Viento: ENE 19 km/h
Temperatura: 20°C
Rocío: 4°C
Humedad: 35%
Barómetro: 1021 hPa
Resumen: Despejado
Visibility: greater than 10 km
2018/08/18 19:30 LEVD 181930Z 06010KT CAVOK 20/04 Q1021
LESA - Salamanca (civ/M, Spain
Distance from station: ONO 349km
Actualización: 19/08/2018 00:00
Despejado
Despejado
 Viento del E
Viento: E 19 km/h
Temperatura: 19°C
Rocío: 5°C
Humedad: 40%
Barómetro: 1022 hPa
Clouds: Despejado
Visibility: 10 km
2018/08/18 22:00 LESA 182200Z AUTO 08010KT 9999 NCD 19/05 Q1022
 
LEXJ - Santander/Paraya, Spain
Distance from station: NNO 247km
Actualización: 19/08/2018 00:00
Despejado
Despejado
 Viento del E
Viento: E 7 km/h
Temperatura: 18°C
Rocío: 16°C
Humedad: 88%
Barómetro: 1024 hPa
Clouds: Despejado
Visibility: 10 km
2018/08/18 22:00 LEXJ 182200Z AUTO 10004KT 9999 NCD 18/16 Q1024
LEAS - Asturias/Aviles, Spain
Distance from station: NO 214km
Actualización: 19/08/2018 00:00
Few Clouds
Few Clouds
 Viento del SE
Viento: SE 7 km/h
Temperatura: 17°C
Rocío: 15°C
Humedad: 88%
Barómetro: 1023 hPa
Clouds: Few Clouds
Visibility: 10 km
Cloud details: Few Clouds 2438 m
2018/08/18 22:00 LEAS 182200Z 13004KT 080V170 9999 FEW080 17/15 Q1023 NOSIG
 
LECO - La Coruna/Alvedr, Spain
Distance from station: ONO 222km
Actualización: 19/08/2018 00:00
Despejado
Despejado
 Viento del N
Viento: N 6 km/h
Temperatura: 19°C
Rocío: 13°C
Humedad: 68%
Barómetro: 1021 hPa
Resumen: Despejado
Visibility: greater than 10 km
2018/08/18 22:00 LECO 182200Z 01003KT 300V060 CAVOK 19/13 Q1021 NOSIG
LEVX - Vigo/Peinador, Spain
Distance from station: O 214km
Actualización: 19/08/2018 00:00
Despejado
Despejado
 Viento del varies
Viento: varies 2 km/h
Temperatura: 23°C
Rocío: 14°C
Humedad: 57%
Barómetro: 1018 hPa
Resumen: Despejado
Visibility: greater than 10 km
2018/08/18 22:00 LEVX 182200Z VRB01KT CAVOK 23/14 Q1018 NOSIG